sensor_id;sensor_type;location;lat;lon;timestamp;temperature;humidity
35246;DHT22;21379;50.962;6.960;2023-04-25T00:00:24;7.10;99.90
35246;DHT22;21379;50.962;6.960;2023-04-25T00:02:53;7.10;99.90
35246;DHT22;21379;50.962;6.960;2023-04-25T00:05:21;7.10;99.90
35246;DHT22;21379;50.962;6.960;2023-04-25T00:07:48;7.10;99.90
35246;DHT22;21379;50.962;6.960;2023-04-25T00:10:15;7.10;99.90
35246;DHT22;21379;50.962;6.960;2023-04-25T00:12:42;7.10;99.90
35246;DHT22;21379;50.962;6.960;2023-04-25T00:15:10;7.20;99.90
35246;DHT22;21379;50.962;6.960;2023-04-25T00:17:38;7.10;99.90
35246;DHT22;21379;50.962;6.960;2023-04-25T00:20:07;7.10;99.90
35246;DHT22;21379;50.962;6.960;2023-04-25T00:22:35;7.10;99.90
35246;DHT22;21379;50.962;6.960;2023-04-25T00:25:04;7.00;99.90
35246;DHT22;21379;50.962;6.960;2023-04-25T00:27:31;7.00;99.90
35246;DHT22;21379;50.962;6.960;2023-04-25T00:30:00;7.00;99.90
35246;DHT22;21379;50.962;6.960;2023-04-25T00:32:27;7.00;99.90
35246;DHT22;21379;50.962;6.960;2023-04-25T00:34:54;7.00;99.90
35246;DHT22;21379;50.962;6.960;2023-04-25T00:37:24;6.90;99.90
35246;DHT22;21379;50.962;6.960;2023-04-25T00:39:51;6.90;99.90
35246;DHT22;21379;50.962;6.960;2023-04-25T00:42:19;6.80;99.90
35246;DHT22;21379;50.962;6.960;2023-04-25T00:44:47;6.80;99.90
35246;DHT22;21379;50.962;6.960;2023-04-25T00:47:15;6.70;99.90
35246;DHT22;21379;50.962;6.960;2023-04-25T00:49:42;6.70;99.90
35246;DHT22;21379;50.962;6.960;2023-04-25T00:52:11;6.60;99.90
35246;DHT22;21379;50.962;6.960;2023-04-25T00:54:39;6.60;99.90
35246;DHT22;21379;50.962;6.960;2023-04-25T00:57:06;6.50;99.90
35246;DHT22;21379;50.962;6.960;2023-04-25T00:59:33;6.50;99.90
35246;DHT22;21379;50.962;6.960;2023-04-25T01:02:01;6.50;99.90
35246;DHT22;21379;50.962;6.960;2023-04-25T01:04:28;6.40;99.90
35246;DHT22;21379;50.962;6.960;2023-04-25T01:06:55;6.40;99.90
35246;DHT22;21379;50.962;6.960;2023-04-25T01:09:22;6.40;99.90
35246;DHT22;21379;50.962;6.960;2023-04-25T01:11:51;6.40;99.90
35246;DHT22;21379;50.962;6.960;2023-04-25T01:14:18;6.40;99.90
35246;DHT22;21379;50.962;6.960;2023-04-25T01:16:45;6.30;99.90
35246;DHT22;21379;50.962;6.960;2023-04-25T01:19:16;6.20;99.90
35246;DHT22;21379;50.962;6.960;2023-04-25T01:21:47;6.20;99.90
35246;DHT22;21379;50.962;6.960;2023-04-25T01:24:14;6.10;99.90
35246;DHT22;21379;50.962;6.960;2023-04-25T01:26:42;6.10;99.90
35246;DHT22;21379;50.962;6.960;2023-04-25T01:29:15;6.10;99.90
35246;DHT22;21379;50.962;6.960;2023-04-25T01:31:43;6.10;99.90
35246;DHT22;21379;50.962;6.960;2023-04-25T01:34:11;6.00;99.90
35246;DHT22;21379;50.962;6.960;2023-04-25T01:36:38;6.00;99.90
35246;DHT22;21379;50.962;6.960;2023-04-25T01:39:07;6.10;99.90
35246;DHT22;21379;50.962;6.960;2023-04-25T01:41:34;6.10;99.90
35246;DHT22;21379;50.962;6.960;2023-04-25T01:44:01;6.10;99.90
35246;DHT22;21379;50.962;6.960;2023-04-25T01:46:29;6.10;99.90
35246;DHT22;21379;50.962;6.960;2023-04-25T01:48:56;6.10;99.90
35246;DHT22;21379;50.962;6.960;2023-04-25T01:51:23;6.10;99.90
35246;DHT22;21379;50.962;6.960;2023-04-25T01:53:50;6.10;99.90
35246;DHT22;21379;50.962;6.960;2023-04-25T01:56:19;6.00;99.90
35246;DHT22;21379;50.962;6.960;2023-04-25T01:58:46;6.00;99.90
35246;DHT22;21379;50.962;6.960;2023-04-25T02:01:36;5.90;99.90
35246;DHT22;21379;50.962;6.960;2023-04-25T02:04:16;5.90;99.90
35246;DHT22;21379;50.962;6.960;2023-04-25T02:06:43;5.90;99.90
35246;DHT22;21379;50.962;6.960;2023-04-25T02:09:10;5.80;99.90
35246;DHT22;21379;50.962;6.960;2023-04-25T02:11:44;5.80;99.90
35246;DHT22;21379;50.962;6.960;2023-04-25T02:14:34;5.70;99.90
35246;DHT22;21379;50.962;6.960;2023-04-25T02:17:21;5.70;99.90
35246;DHT22;21379;50.962;6.960;2023-04-25T02:19:49;5.70;99.90
35246;DHT22;21379;50.962;6.960;2023-04-25T02:22:16;5.70;99.90
35246;DHT22;21379;50.962;6.960;2023-04-25T02:24:46;5.70;99.90
35246;DHT22;21379;50.962;6.960;2023-04-25T02:27:15;5.80;99.90
35246;DHT22;21379;50.962;6.960;2023-04-25T02:29:42;5.80;99.90
35246;DHT22;21379;50.962;6.960;2023-04-25T02:32:10;5.90;99.90
35246;DHT22;21379;50.962;6.960;2023-04-25T02:34:37;6.00;99.90
35246;DHT22;21379;50.962;6.960;2023-04-25T02:37:05;6.00;99.90
35246;DHT22;21379;50.962;6.960;2023-04-25T02:39:32;6.10;99.90
35246;DHT22;21379;50.962;6.960;2023-04-25T02:41:58;6.10;99.90
35246;DHT22;21379;50.962;6.960;2023-04-25T02:44:30;6.20;99.90
35246;DHT22;21379;50.962;6.960;2023-04-25T02:46:57;6.20;99.90
35246;DHT22;21379;50.962;6.960;2023-04-25T02:49:24;6.20;99.90
35246;DHT22;21379;50.962;6.960;2023-04-25T02:51:51;6.30;99.90
35246;DHT22;21379;50.962;6.960;2023-04-25T02:54:18;6.30;99.90
35246;DHT22;21379;50.962;6.960;2023-04-25T02:56:47;6.30;99.90
35246;DHT22;21379;50.962;6.960;2023-04-25T02:59:20;6.30;99.90
35246;DHT22;21379;50.962;6.960;2023-04-25T03:01:48;6.30;99.90
35246;DHT22;21379;50.962;6.960;2023-04-25T03:04:15;6.40;99.90
35246;DHT22;21379;50.962;6.960;2023-04-25T03:06:42;6.40;99.90
35246;DHT22;21379;50.962;6.960;2023-04-25T03:09:09;6.40;99.90
35246;DHT22;21379;50.962;6.960;2023-04-25T03:11:38;6.40;99.90
35246;DHT22;21379;50.962;6.960;2023-04-25T03:14:05;6.40;99.90
35246;DHT22;21379;50.962;6.960;2023-04-25T03:16:32;6.40;99.90
35246;DHT22;21379;50.962;6.960;2023-04-25T03:19:00;6.40;99.90
35246;DHT22;21379;50.962;6.960;2023-04-25T03:21:27;6.40;99.90
35246;DHT22;21379;50.962;6.960;2023-04-25T03:23:54;6.40;99.90
35246;DHT22;21379;50.962;6.960;2023-04-25T03:26:21;6.40;99.90
35246;DHT22;21379;50.962;6.960;2023-04-25T03:28:48;6.40;99.90
35246;DHT22;21379;50.962;6.960;2023-04-25T03:31:15;6.40;99.90
35246;DHT22;21379;50.962;6.960;2023-04-25T03:33:42;6.40;99.90
35246;DHT22;21379;50.962;6.960;2023-04-25T03:36:10;6.40;99.90
35246;DHT22;21379;50.962;6.960;2023-04-25T03:38:38;6.40;99.90
35246;DHT22;21379;50.962;6.960;2023-04-25T03:41:07;6.50;99.90
35246;DHT22;21379;50.962;6.960;2023-04-25T03:43:39;6.50;99.90
35246;DHT22;21379;50.962;6.960;2023-04-25T03:46:10;6.50;99.90
35246;DHT22;21379;50.962;6.960;2023-04-25T03:48:38;6.50;99.90
35246;DHT22;21379;50.962;6.960;2023-04-25T03:51:06;6.50;99.90
35246;DHT22;21379;50.962;6.960;2023-04-25T03:53:38;6.50;99.90
35246;DHT22;21379;50.962;6.960;2023-04-25T03:56:23;6.50;99.90
35246;DHT22;21379;50.962;6.960;2023-04-25T03:58:59;6.50;99.90
35246;DHT22;21379;50.962;6.960;2023-04-25T04:01:28;6.50;99.90
35246;DHT22;21379;50.962;6.960;2023-04-25T04:03:55;6.50;99.90
35246;DHT22;21379;50.962;6.960;2023-04-25T04:06:23;6.50;99.90
35246;DHT22;21379;50.962;6.960;2023-04-25T04:08:57;6.60;99.90
35246;DHT22;21379;50.962;6.960;2023-04-25T04:11:24;6.50;99.90
35246;DHT22;21379;50.962;6.960;2023-04-25T04:13:51;6.60;99.90
35246;DHT22;21379;50.962;6.960;2023-04-25T04:16:18;6.50;99.90
35246;DHT22;21379;50.962;6.960;2023-04-25T04:18:46;6.60;99.90
35246;DHT22;21379;50.962;6.960;2023-04-25T04:21:13;6.60;99.90
35246;DHT22;21379;50.962;6.960;2023-04-25T04:23:41;6.60;99.90
35246;DHT22;21379;50.962;6.960;2023-04-25T04:26:10;6.60;99.90
35246;DHT22;21379;50.962;6.960;2023-04-25T04:28:38;6.60;99.90
35246;DHT22;21379;50.962;6.960;2023-04-25T04:31:24;6.60;99.90
35246;DHT22;21379;50.962;6.960;2023-04-25T04:33:51;6.60;99.90
35246;DHT22;21379;50.962;6.960;2023-04-25T04:36:18;6.60;99.90
35246;DHT22;21379;50.962;6.960;2023-04-25T04:38:48;6.60;99.90
35246;DHT22;21379;50.962;6.960;2023-04-25T04:41:31;6.60;99.90
35246;DHT22;21379;50.962;6.960;2023-04-25T04:44:24;6.60;99.90
35246;DHT22;21379;50.962;6.960;2023-04-25T04:47:11;6.70;99.90
35246;DHT22;21379;50.962;6.960;2023-04-25T04:49:59;6.70;99.90
35246;DHT22;21379;50.962;6.960;2023-04-25T04:52:38;6.70;99.90
35246;DHT22;21379;50.962;6.960;2023-04-25T04:55:44;6.70;99.90
35246;DHT22;21379;50.962;6.960;2023-04-25T04:58:31;6.70;99.90
35246;DHT22;21379;50.962;6.960;2023-04-25T05:01:24;6.80;99.90
35246;DHT22;21379;50.962;6.960;2023-04-25T05:04:20;6.70;99.90
35246;DHT22;21379;50.962;6.960;2023-04-25T05:07:06;6.80;99.90
35246;DHT22;21379;50.962;6.960;2023-04-25T05:09:51;6.80;99.90
35246;DHT22;21379;50.962;6.960;2023-04-25T05:12:42;6.80;99.90
35246;DHT22;21379;50.962;6.960;2023-04-25T05:15:29;6.90;99.90
35246;DHT22;21379;50.962;6.960;2023-04-25T05:18:14;6.90;99.90
35246;DHT22;21379;50.962;6.960;2023-04-25T05:20:52;6.90;99.90
35246;DHT22;21379;50.962;6.960;2023-04-25T05:23:35;6.90;99.90
35246;DHT22;21379;50.962;6.960;2023-04-25T05:26:10;6.90;99.90
35246;DHT22;21379;50.962;6.960;2023-04-25T05:28:54;7.00;99.90
35246;DHT22;21379;50.962;6.960;2023-04-25T05:31:31;7.10;99.90
35246;DHT22;21379;50.962;6.960;2023-04-25T05:34:07;7.10;99.90
35246;DHT22;21379;50.962;6.960;2023-04-25T05:37:06;7.20;99.90
35246;DHT22;21379;50.962;6.960;2023-04-25T05:39:40;7.10;99.90
35246;DHT22;21379;50.962;6.960;2023-04-25T05:42:27;7.10;99.90
35246;DHT22;21379;50.962;6.960;2023-04-25T05:45:06;7.20;99.90
35246;DHT22;21379;50.962;6.960;2023-04-25T05:47:56;7.30;99.90
35246;DHT22;21379;50.962;6.960;2023-04-25T05:50:37;7.30;99.90
35246;DHT22;21379;50.962;6.960;2023-04-25T05:53:43;7.30;99.90
35246;DHT22;21379;50.962;6.960;2023-04-25T05:56:11;7.30;99.90
35246;DHT22;21379;50.962;6.960;2023-04-25T05:58:39;7.30;99.90
35246;DHT22;21379;50.962;6.960;2023-04-25T06:01:07;7.30;99.90
35246;DHT22;21379;50.962;6.960;2023-04-25T06:03:36;7.40;99.90
35246;DHT22;21379;50.962;6.960;2023-04-25T06:06:04;7.40;99.90
35246;DHT22;21379;50.962;6.960;2023-04-25T06:08:31;7.50;99.90
35246;DHT22;21379;50.962;6.960;2023-04-25T06:10:58;7.50;99.90
35246;DHT22;21379;50.962;6.960;2023-04-25T06:13:25;7.50;99.90
35246;DHT22;21379;50.962;6.960;2023-04-25T06:15:52;7.60;99.90
35246;DHT22;21379;50.962;6.960;2023-04-25T06:18:19;7.60;99.90
35246;DHT22;21379;50.962;6.960;2023-04-25T06:20:47;7.60;99.90
35246;DHT22;21379;50.962;6.960;2023-04-25T06:23:16;7.80;99.90
35246;DHT22;21379;50.962;6.960;2023-04-25T06:25:52;8.10;99.90
35246;DHT22;21379;50.962;6.960;2023-04-25T06:28:20;8.10;99.90
35246;DHT22;21379;50.962;6.960;2023-04-25T06:30:48;8.10;99.90
35246;DHT22;21379;50.962;6.960;2023-04-25T06:33:17;8.20;99.90
35246;DHT22;21379;50.962;6.960;2023-04-25T06:35:46;8.40;99.90
35246;DHT22;21379;50.962;6.960;2023-04-25T06:38:17;8.20;99.90
35246;DHT22;21379;50.962;6.960;2023-04-25T06:40:47;8.30;99.90
35246;DHT22;21379;50.962;6.960;2023-04-25T06:43:15;8.40;99.90
35246;DHT22;21379;50.962;6.960;2023-04-25T06:45:55;8.50;99.90
35246;DHT22;21379;50.962;6.960;2023-04-25T06:48:24;8.60;99.90
35246;DHT22;21379;50.962;6.960;2023-04-25T06:50:52;8.60;99.90
35246;DHT22;21379;50.962;6.960;2023-04-25T06:53:20;8.90;99.90
35246;DHT22;21379;50.962;6.960;2023-04-25T06:55:53;8.80;99.90
35246;DHT22;21379;50.962;6.960;2023-04-25T06:58:22;8.80;99.90
35246;DHT22;21379;50.962;6.960;2023-04-25T07:00:52;8.90;99.90
35246;DHT22;21379;50.962;6.960;2023-04-25T07:03:21;8.90;99.90
35246;DHT22;21379;50.962;6.960;2023-04-25T07:05:51;9.00;99.90
35246;DHT22;21379;50.962;6.960;2023-04-25T07:08:17;9.00;99.90
35246;DHT22;21379;50.962;6.960;2023-04-25T07:10:47;9.00;99.90
35246;DHT22;21379;50.962;6.960;2023-04-25T07:13:14;8.90;99.90
35246;DHT22;21379;50.962;6.960;2023-04-25T07:15:41;9.00;99.90
35246;DHT22;21379;50.962;6.960;2023-04-25T07:18:08;9.00;99.90
35246;DHT22;21379;50.962;6.960;2023-04-25T07:20:36;9.10;99.90
35246;DHT22;21379;50.962;6.960;2023-04-25T07:23:03;9.10;99.90
35246;DHT22;21379;50.962;6.960;2023-04-25T07:25:30;9.00;99.90
35246;DHT22;21379;50.962;6.960;2023-04-25T07:27:58;8.90;99.90
35246;DHT22;21379;50.962;6.960;2023-04-25T07:30:26;8.90;99.90
35246;DHT22;21379;50.962;6.960;2023-04-25T07:32:54;8.80;99.90
35246;DHT22;21379;50.962;6.960;2023-04-25T07:35:21;8.80;99.90
35246;DHT22;21379;50.962;6.960;2023-04-25T07:37:48;8.80;99.90
35246;DHT22;21379;50.962;6.960;2023-04-25T07:40:18;9.00;99.90
35246;DHT22;21379;50.962;6.960;2023-04-25T07:42:52;9.10;99.90
35246;DHT22;21379;50.962;6.960;2023-04-25T07:45:28;9.40;99.90
35246;DHT22;21379;50.962;6.960;2023-04-25T07:47:55;9.70;99.90
35246;DHT22;21379;50.962;6.960;2023-04-25T07:50:23;9.90;99.90
35246;DHT22;21379;50.962;6.960;2023-04-25T07:52:50;9.80;99.90
35246;DHT22;21379;50.962;6.960;2023-04-25T07:55:24;9.60;99.90
35246;DHT22;21379;50.962;6.960;2023-04-25T07:58:00;9.50;99.90
35246;DHT22;21379;50.962;6.960;2023-04-25T08:00:31;9.50;99.90
35246;DHT22;21379;50.962;6.960;2023-04-25T08:03:18;9.50;99.90
35246;DHT22;21379;50.962;6.960;2023-04-25T08:05:45;9.90;99.90
35246;DHT22;21379;50.962;6.960;2023-04-25T08:08:13;9.90;99.90
35246;DHT22;21379;50.962;6.960;2023-04-25T08:10:41;9.80;99.90
35246;DHT22;21379;50.962;6.960;2023-04-25T08:13:08;9.50;99.90
35246;DHT22;21379;50.962;6.960;2023-04-25T08:15:39;9.60;99.90
35246;DHT22;21379;50.962;6.960;2023-04-25T08:18:06;9.80;99.90
35246;DHT22;21379;50.962;6.960;2023-04-25T08:20:33;9.50;99.90
35246;DHT22;21379;50.962;6.960;2023-04-25T08:23:02;9.30;99.90
35246;DHT22;21379;50.962;6.960;2023-04-25T08:25:50;9.20;99.90
35246;DHT22;21379;50.962;6.960;2023-04-25T08:28:23;9.10;99.90
35246;DHT22;21379;50.962;6.960;2023-04-25T08:30:52;9.10;99.90
35246;DHT22;21379;50.962;6.960;2023-04-25T08:33:19;9.20;99.90
35246;DHT22;21379;50.962;6.960;2023-04-25T08:35:56;9.50;99.90
35246;DHT22;21379;50.962;6.960;2023-04-25T08:38:25;9.40;99.90
35246;DHT22;21379;50.962;6.960;2023-04-25T08:40:54;9.60;99.90
35246;DHT22;21379;50.962;6.960;2023-04-25T08:43:23;9.40;99.90
35246;DHT22;21379;50.962;6.960;2023-04-25T08:45:53;9.50;99.90
35246;DHT22;21379;50.962;6.960;2023-04-25T08:49:00;9.40;99.90
35246;DHT22;21379;50.962;6.960;2023-04-25T08:51:31;9.30;99.90
35246;DHT22;21379;50.962;6.960;2023-04-25T08:54:07;9.40;99.90
35246;DHT22;21379;50.962;6.960;2023-04-25T08:56:35;9.20;99.90
35246;DHT22;21379;50.962;6.960;2023-04-25T08:59:02;9.30;99.90
35246;DHT22;21379;50.962;6.960;2023-04-25T09:01:31;9.50;99.90
35246;DHT22;21379;50.962;6.960;2023-04-25T09:03:58;9.70;99.90
35246;DHT22;21379;50.962;6.960;2023-04-25T09:06:25;10.00;99.90
35246;DHT22;21379;50.962;6.960;2023-04-25T09:08:53;10.00;99.90
35246;DHT22;21379;50.962;6.960;2023-04-25T09:11:20;9.90;99.90
35246;DHT22;21379;50.962;6.960;2023-04-25T09:13:47;9.70;99.90
35246;DHT22;21379;50.962;6.960;2023-04-25T09:16:22;9.50;99.90
35246;DHT22;21379;50.962;6.960;2023-04-25T09:19:21;9.60;99.90
35246;DHT22;21379;50.962;6.960;2023-04-25T09:21:52;9.60;99.90
35246;DHT22;21379;50.962;6.960;2023-04-25T09:31:11;9.70;99.90
35246;DHT22;21379;50.962;6.960;2023-04-25T09:33:45;9.90;99.90
35246;DHT22;21379;50.962;6.960;2023-04-25T09:36:14;10.10;99.90
35246;DHT22;21379;50.962;6.960;2023-04-25T09:38:55;10.30;99.90
35246;DHT22;21379;50.962;6.960;2023-04-25T09:41:27;10.30;99.90
35246;DHT22;21379;50.962;6.960;2023-04-25T09:43:57;10.20;99.90
35246;DHT22;21379;50.962;6.960;2023-04-25T09:46:33;10.10;99.90
35246;DHT22;21379;50.962;6.960;2023-04-25T09:49:06;9.70;99.90
35246;DHT22;21379;50.962;6.960;2023-04-25T09:51:41;9.50;99.90
35246;DHT22;21379;50.962;6.960;2023-04-25T09:54:09;9.50;99.90
35246;DHT22;21379;50.962;6.960;2023-04-25T09:56:41;9.70;99.90
35246;DHT22;21379;50.962;6.960;2023-04-25T09:59:09;10.10;99.90
35246;DHT22;21379;50.962;6.960;2023-04-25T10:01:40;10.30;99.90
35246;DHT22;21379;50.962;6.960;2023-04-25T10:04:12;10.20;99.90
35246;DHT22;21379;50.962;6.960;2023-04-25T10:07:06;10.10;99.90
35246;DHT22;21379;50.962;6.960;2023-04-25T10:09:34;9.90;99.90
35246;DHT22;21379;50.962;6.960;2023-04-25T10:12:03;9.70;99.90
35246;DHT22;21379;50.962;6.960;2023-04-25T10:14:30;9.70;99.90
35246;DHT22;21379;50.962;6.960;2023-04-25T10:16:58;9.50;99.90
35246;DHT22;21379;50.962;6.960;2023-04-25T10:19:26;9.50;99.90
35246;DHT22;21379;50.962;6.960;2023-04-25T10:21:57;9.60;99.90
35246;DHT22;21379;50.962;6.960;2023-04-25T10:24:27;9.70;99.90
35246;DHT22;21379;50.962;6.960;2023-04-25T10:26:54;9.90;99.90
35246;DHT22;21379;50.962;6.960;2023-04-25T10:29:23;9.90;99.90
35246;DHT22;21379;50.962;6.960;2023-04-25T10:31:51;9.90;99.90
35246;DHT22;21379;50.962;6.960;2023-04-25T10:34:18;10.20;99.90
35246;DHT22;21379;50.962;6.960;2023-04-25T10:36:50;10.50;99.90
35246;DHT22;21379;50.962;6.960;2023-04-25T10:39:22;11.80;99.90
35246;DHT22;21379;50.962;6.960;2023-04-25T10:41:56;13.10;99.90
35246;DHT22;21379;50.962;6.960;2023-04-25T10:44:26;12.50;99.90
35246;DHT22;21379;50.962;6.960;2023-04-25T10:46:55;11.80;99.90
35246;DHT22;21379;50.962;6.960;2023-04-25T10:49:32;11.00;99.90
35246;DHT22;21379;50.962;6.960;2023-04-25T10:52:19;10.40;99.90
35246;DHT22;21379;50.962;6.960;2023-04-25T10:54:52;10.00;99.90
35246;DHT22;21379;50.962;6.960;2023-04-25T10:57:31;9.80;99.90
35246;DHT22;21379;50.962;6.960;2023-04-25T11:00:00;9.90;99.90
35246;DHT22;21379;50.962;6.960;2023-04-25T11:02:31;9.90;99.90
35246;DHT22;21379;50.962;6.960;2023-04-25T11:04:59;9.70;99.90
35246;DHT22;21379;50.962;6.960;2023-04-25T11:07:33;9.80;99.90
35246;DHT22;21379;50.962;6.960;2023-04-25T11:10:03;9.90;99.90
35246;DHT22;21379;50.962;6.960;2023-04-25T11:12:32;9.80;99.90
35246;DHT22;21379;50.962;6.960;2023-04-25T11:15:03;9.90;99.90
35246;DHT22;21379;50.962;6.960;2023-04-25T11:17:31;10.00;99.90
35246;DHT22;21379;50.962;6.960;2023-04-25T11:19:58;10.20;99.90
35246;DHT22;21379;50.962;6.960;2023-04-25T11:22:26;10.30;99.90
35246;DHT22;21379;50.962;6.960;2023-04-25T11:24:54;10.70;99.90
35246;DHT22;21379;50.962;6.960;2023-04-25T11:27:21;11.00;99.90
35246;DHT22;21379;50.962;6.960;2023-04-25T11:29:51;11.20;99.90
35246;DHT22;21379;50.962;6.960;2023-04-25T11:32:20;11.30;99.90
35246;DHT22;21379;50.962;6.960;2023-04-25T11:34:49;11.20;99.90
35246;DHT22;21379;50.962;6.960;2023-04-25T11:37:16;11.20;99.90
35246;DHT22;21379;50.962;6.960;2023-04-25T11:39:43;11.10;99.90
35246;DHT22;21379;50.962;6.960;2023-04-25T11:42:12;10.90;99.90
35246;DHT22;21379;50.962;6.960;2023-04-25T11:44:39;11.00;99.90
35246;DHT22;21379;50.962;6.960;2023-04-25T11:47:07;11.40;99.90
35246;DHT22;21379;50.962;6.960;2023-04-25T11:49:35;11.40;99.90
35246;DHT22;21379;50.962;6.960;2023-04-25T11:52:02;11.30;99.90
35246;DHT22;21379;50.962;6.960;2023-04-25T11:54:29;11.60;99.90
35246;DHT22;21379;50.962;6.960;2023-04-25T11:56:56;12.70;99.90
35246;DHT22;21379;50.962;6.960;2023-04-25T11:59:24;13.50;99.90
35246;DHT22;21379;50.962;6.960;2023-04-25T12:01:52;14.20;99.90
35246;DHT22;21379;50.962;6.960;2023-04-25T12:04:22;13.80;99.90
35246;DHT22;21379;50.962;6.960;2023-04-25T12:06:51;12.30;98.10
35246;DHT22;21379;50.962;6.960;2023-04-25T12:09:20;12.30;99.60
35246;DHT22;21379;50.962;6.960;2023-04-25T12:11:49;12.30;99.20
35246;DHT22;21379;50.962;6.960;2023-04-25T12:14:23;12.60;99.00
35246;DHT22;21379;50.962;6.960;2023-04-25T12:16:50;13.30;99.00
35246;DHT22;21379;50.962;6.960;2023-04-25T12:19:21;12.70;98.10
35246;DHT22;21379;50.962;6.960;2023-04-25T12:21:49;13.50;98.40
35246;DHT22;21379;50.962;6.960;2023-04-25T12:24:17;13.30;96.50
35246;DHT22;21379;50.962;6.960;2023-04-25T12:26:49;13.20;97.20
35246;DHT22;21379;50.962;6.960;2023-04-25T12:29:21;12.90;97.30
35246;DHT22;21379;50.962;6.960;2023-04-25T12:31:49;13.00;97.90
35246;DHT22;21379;50.962;6.960;2023-04-25T12:34:16;12.30;98.30
35246;DHT22;21379;50.962;6.960;2023-04-25T12:36:45;11.90;98.10
35246;DHT22;21379;50.962;6.960;2023-04-25T12:39:15;12.00;98.10
35246;DHT22;21379;50.962;6.960;2023-04-25T12:41:43;11.80;97.80
35246;DHT22;21379;50.962;6.960;2023-04-25T12:44:10;11.70;98.30
35246;DHT22;21379;50.962;6.960;2023-04-25T12:46:37;11.70;98.30
35246;DHT22;21379;50.962;6.960;2023-04-25T12:49:05;11.60;98.20
35246;DHT22;21379;50.962;6.960;2023-04-25T12:51:33;11.50;98.80
35246;DHT22;21379;50.962;6.960;2023-04-25T12:54:02;11.30;98.70
35246;DHT22;21379;50.962;6.960;2023-04-25T12:56:29;11.10;99.00
35246;DHT22;21379;50.962;6.960;2023-04-25T12:58:56;11.00;99.90
35246;DHT22;21379;50.962;6.960;2023-04-25T13:01:23;10.90;99.90
35246;DHT22;21379;50.962;6.960;2023-04-25T13:03:50;10.90;99.90
35246;DHT22;21379;50.962;6.960;2023-04-25T13:06:18;11.00;99.90
35246;DHT22;21379;50.962;6.960;2023-04-25T13:08:46;11.50;99.90
35246;DHT22;21379;50.962;6.960;2023-04-25T13:11:14;12.20;99.70
35246;DHT22;21379;50.962;6.960;2023-04-25T13:13:41;12.40;98.30
35246;DHT22;21379;50.962;6.960;2023-04-25T13:16:08;12.10;97.00
35246;DHT22;21379;50.962;6.960;2023-04-25T13:18:35;12.10;97.30
35246;DHT22;21379;50.962;6.960;2023-04-25T13:21:03;12.40;97.30
35246;DHT22;21379;50.962;6.960;2023-04-25T13:23:30;12.40;96.30
35246;DHT22;21379;50.962;6.960;2023-04-25T13:25:57;13.20;97.30
35246;DHT22;21379;50.962;6.960;2023-04-25T13:28:26;14.10;96.30
35246;DHT22;21379;50.962;6.960;2023-04-25T13:30:52;14.60;95.50
35246;DHT22;21379;50.962;6.960;2023-04-25T13:33:19;14.50;95.00
35246;DHT22;21379;50.962;6.960;2023-04-25T13:35:48;14.40;95.10
35246;DHT22;21379;50.962;6.960;2023-04-25T13:38:20;14.30;95.20
35246;DHT22;21379;50.962;6.960;2023-04-25T13:40:48;14.50;93.90
35246;DHT22;21379;50.962;6.960;2023-04-25T13:43:15;13.70;94.40
35246;DHT22;21379;50.962;6.960;2023-04-25T13:45:43;13.50;94.80
35246;DHT22;21379;50.962;6.960;2023-04-25T13:48:10;14.20;93.70
35246;DHT22;21379;50.962;6.960;2023-04-25T13:50:37;14.00;93.20
35246;DHT22;21379;50.962;6.960;2023-04-25T13:53:04;13.90;93.40
35246;DHT22;21379;50.962;6.960;2023-04-25T13:55:31;14.30;93.10
35246;DHT22;21379;50.962;6.960;2023-04-25T13:57:58;13.50;92.80
35246;DHT22;21379;50.962;6.960;2023-04-25T14:00:25;14.10;92.60
35246;DHT22;21379;50.962;6.960;2023-04-25T14:02:53;14.90;92.70
35246;DHT22;21379;50.962;6.960;2023-04-25T14:05:20;15.70;91.90
35246;DHT22;21379;50.962;6.960;2023-04-25T14:07:47;16.70;91.90
35246;DHT22;21379;50.962;6.960;2023-04-25T14:10:14;16.70;91.10
35246;DHT22;21379;50.962;6.960;2023-04-25T14:12:41;16.00;92.40
35246;DHT22;21379;50.962;6.960;2023-04-25T14:15:08;16.00;92.30
35246;DHT22;21379;50.962;6.960;2023-04-25T14:17:36;16.70;92.10
35246;DHT22;21379;50.962;6.960;2023-04-25T14:20:06;17.30;92.00
35246;DHT22;21379;50.962;6.960;2023-04-25T14:22:33;16.10;92.00
35246;DHT22;21379;50.962;6.960;2023-04-25T14:25:00;14.90;94.30
35246;DHT22;21379;50.962;6.960;2023-04-25T14:27:27;14.70;95.20
35246;DHT22;21379;50.962;6.960;2023-04-25T14:29:54;14.60;95.80
35246;DHT22;21379;50.962;6.960;2023-04-25T14:32:20;14.30;95.60
35246;DHT22;21379;50.962;6.960;2023-04-25T14:34:48;13.80;96.60
35246;DHT22;21379;50.962;6.960;2023-04-25T14:37:16;13.60;96.90
35246;DHT22;21379;50.962;6.960;2023-04-25T14:39:43;14.20;96.30
35246;DHT22;21379;50.962;6.960;2023-04-25T14:42:10;13.90;91.60
35246;DHT22;21379;50.962;6.960;2023-04-25T14:44:38;13.20;91.60
35246;DHT22;21379;50.962;6.960;2023-04-25T14:47:05;12.90;91.70
35246;DHT22;21379;50.962;6.960;2023-04-25T14:49:32;12.60;93.10
35246;DHT22;21379;50.962;6.960;2023-04-25T14:51:59;12.30;93.70
35246;DHT22;21379;50.962;6.960;2023-04-25T14:54:28;12.30;94.00
35246;DHT22;21379;50.962;6.960;2023-04-25T14:56:54;11.80;94.60
35246;DHT22;21379;50.962;6.960;2023-04-25T14:59:22;11.30;94.90
35246;DHT22;21379;50.962;6.960;2023-04-25T15:01:50;11.20;95.40
35246;DHT22;21379;50.962;6.960;2023-04-25T15:04:17;11.00;96.10
35246;DHT22;21379;50.962;6.960;2023-04-25T15:06:44;10.80;96.40
35246;DHT22;21379;50.962;6.960;2023-04-25T15:09:11;10.70;96.80
35246;DHT22;21379;50.962;6.960;2023-04-25T15:11:40;10.90;96.70
35246;DHT22;21379;50.962;6.960;2023-04-25T15:14:07;11.20;96.10
35246;DHT22;21379;50.962;6.960;2023-04-25T15:16:34;11.50;96.20
35246;DHT22;21379;50.962;6.960;2023-04-25T15:19:01;11.80;95.80
35246;DHT22;21379;50.962;6.960;2023-04-25T15:21:30;11.50;95.00
35246;DHT22;21379;50.962;6.960;2023-04-25T15:23:57;11.10;95.10
35246;DHT22;21379;50.962;6.960;2023-04-25T15:26:24;10.90;94.80
35246;DHT22;21379;50.962;6.960;2023-04-25T15:28:52;11.10;94.80
35246;DHT22;21379;50.962;6.960;2023-04-25T15:31:19;11.10;94.90
35246;DHT22;21379;50.962;6.960;2023-04-25T15:33:46;11.00;93.70
35246;DHT22;21379;50.962;6.960;2023-04-25T15:36:13;11.10;94.40
35246;DHT22;21379;50.962;6.960;2023-04-25T15:38:42;11.40;95.00
35246;DHT22;21379;50.962;6.960;2023-04-25T15:41:09;11.40;95.50
35246;DHT22;21379;50.962;6.960;2023-04-25T15:43:35;11.50;96.00
35246;DHT22;21379;50.962;6.960;2023-04-25T15:46:04;11.50;96.00
35246;DHT22;21379;50.962;6.960;2023-04-25T15:48:32;11.40;95.90
35246;DHT22;21379;50.962;6.960;2023-04-25T15:50:59;11.40;96.00
35246;DHT22;21379;50.962;6.960;2023-04-25T15:53:26;11.40;97.10
35246;DHT22;21379;50.962;6.960;2023-04-25T15:55:53;11.10;97.50
35246;DHT22;21379;50.962;6.960;2023-04-25T15:58:20;11.10;97.80
35246;DHT22;21379;50.962;6.960;2023-04-25T16:00:47;11.10;98.00
35246;DHT22;21379;50.962;6.960;2023-04-25T16:03:17;11.00;97.60
35246;DHT22;21379;50.962;6.960;2023-04-25T16:05:44;11.00;97.80